createdAt,value
2018-06-24T00:00:15.521Z,92.64
2018-06-24T00:01:15.510Z,92.07
2018-06-24T00:02:15.502Z,92.07
2018-06-24T00:03:15.495Z,91.39
2018-06-24T00:04:15.489Z,92.16
2018-06-24T00:05:15.483Z,92.64
2018-06-24T00:06:15.475Z,92.45
2018-06-24T00:07:15.471Z,93.50
2018-06-24T00:08:15.461Z,94.22
2018-06-24T00:09:15.454Z,94.17
2018-06-24T00:10:15.446Z,94.31
2018-06-24T00:11:15.441Z,95.17
2018-06-24T00:12:15.433Z,95.46
2018-06-24T00:13:15.426Z,95.17
2018-06-24T00:14:15.440Z,95.65
2018-06-24T00:15:15.411Z,96.22
2018-06-24T00:16:15.404Z,96.32
2018-06-24T00:17:15.399Z,96.51
2018-06-24T00:18:15.389Z,96.51
2018-06-24T00:19:15.386Z,96.99
2018-06-24T00:20:15.375Z,96.70
2018-06-24T00:21:15.368Z,97.18
2018-06-24T00:22:15.359Z,97.18
2018-06-24T00:23:15.352Z,97.85
2018-06-24T00:24:15.348Z,97.85
2018-06-24T00:25:15.338Z,98.04
2018-06-24T00:26:15.330Z,97.75
2018-06-24T00:27:15.323Z,97.66
2018-06-24T00:28:15.315Z,97.47
2018-06-24T00:29:15.308Z,97.75
2018-06-24T00:30:15.304Z,97.75
2018-06-24T00:31:15.293Z,98.61
2018-06-24T00:32:15.285Z,99.09
2018-06-24T00:33:15.278Z,97.94
2018-06-24T00:34:15.269Z,98.80
2018-06-24T00:35:15.262Z,97.85
2018-06-24T00:36:15.254Z,98.61
2018-06-24T00:37:15.262Z,98.90
2018-06-24T00:38:15.241Z,99.28
2018-06-24T00:39:15.230Z,99.48
2018-06-24T00:40:15.224Z,99.80
2018-06-24T00:41:15.215Z,99.99
2018-06-24T00:42:16.409Z,99.99
2018-06-24T00:43:15.200Z,99.99
2018-06-24T00:44:15.192Z,99.99
2018-06-24T00:45:15.184Z,99.99
2018-06-24T00:46:15.176Z,99.99
2018-06-24T00:47:15.167Z,99.99
2018-06-24T00:48:15.160Z,99.99
2018-06-24T00:49:15.152Z,99.99
2018-06-24T00:50:15.143Z,99.99
2018-06-24T00:51:15.135Z,99.99
2018-06-24T00:52:15.127Z,99.99
2018-06-24T00:53:15.119Z,99.99
2018-06-24T00:54:15.315Z,99.99
2018-06-24T00:55:15.103Z,99.99
2018-06-24T00:56:15.095Z,99.99
2018-06-24T00:57:15.088Z,99.99
2018-06-24T00:58:15.078Z,99.99
2018-06-24T00:59:15.073Z,99.99
2018-06-24T01:00:15.063Z,99.99
2018-06-24T01:01:15.056Z,99.99
2018-06-24T01:02:15.048Z,99.99
2018-06-24T01:03:15.040Z,99.99
2018-06-24T01:04:15.035Z,99.99
2018-06-24T01:05:15.026Z,99.99
2018-06-24T01:06:15.020Z,99.99
2018-06-24T01:07:15.009Z,99.99
2018-06-24T01:08:15.000Z,99.99
2018-06-24T01:09:14.996Z,99.99
2018-06-24T01:10:14.989Z,99.99
2018-06-24T01:11:14.980Z,99.99
2018-06-24T01:12:14.969Z,99.99
2018-06-24T01:13:14.962Z,99.99
2018-06-24T01:14:14.953Z,99.99
2018-06-24T01:15:14.946Z,99.99
2018-06-24T01:16:14.938Z,99.99
2018-06-24T01:17:14.930Z,99.99
2018-06-24T01:18:14.922Z,99.99
2018-06-24T01:19:14.915Z,99.99
2018-06-24T01:20:14.907Z,99.99
2018-06-24T01:21:14.903Z,99.99
2018-06-24T01:22:14.892Z,99.99
2018-06-24T01:23:14.884Z,99.99
2018-06-24T01:24:14.877Z,99.99
2018-06-24T01:25:14.869Z,99.99
2018-06-24T01:26:14.864Z,99.99
2018-06-24T01:27:14.854Z,99.99
2018-06-24T01:28:14.846Z,99.99
2018-06-24T01:29:14.839Z,99.99
2018-06-24T01:30:15.036Z,99.99
2018-06-24T01:31:14.823Z,99.99
2018-06-24T01:32:14.817Z,99.99
2018-06-24T01:33:14.808Z,99.99
2018-06-24T01:34:14.800Z,99.99
2018-06-24T01:35:14.794Z,99.99
2018-06-24T01:36:14.785Z,99.99
2018-06-24T01:37:14.778Z,99.99
2018-06-24T01:38:14.770Z,99.99
2018-06-24T01:39:14.762Z,99.99
2018-06-24T01:40:14.754Z,99.99
2018-06-24T01:41:14.751Z,99.99
2018-06-24T01:42:14.739Z,99.99
2018-06-24T01:43:14.731Z,99.99
2018-06-24T01:44:14.724Z,99.99
2018-06-24T01:45:14.721Z,99.99
2018-06-24T01:46:14.708Z,99.99
2018-06-24T01:47:14.700Z,99.99
2018-06-24T01:48:14.693Z,99.99
2018-06-24T01:49:14.687Z,99.99
2018-06-24T01:50:14.677Z,99.99
2018-06-24T01:51:14.669Z,99.99
2018-06-24T01:52:14.662Z,99.99
2018-06-24T01:53:14.654Z,99.99
2018-06-24T01:54:14.645Z,99.99
2018-06-24T01:55:14.637Z,99.99
2018-06-24T01:56:14.632Z,99.99
2018-06-24T01:57:14.622Z,99.99
2018-06-24T01:58:14.615Z,99.99
2018-06-24T01:59:14.606Z,99.99
2018-06-24T02:00:14.598Z,99.99
2018-06-24T02:01:14.590Z,99.99
2018-06-24T02:02:14.581Z,99.99
2018-06-24T02:03:14.573Z,99.99
2018-06-24T02:04:14.566Z,99.99
2018-06-24T02:05:14.565Z,99.99
2018-06-24T02:06:14.552Z,99.99
2018-06-24T02:07:14.542Z,99.99
2018-06-24T02:08:14.535Z,99.99
2018-06-24T02:09:14.528Z,99.99
2018-06-24T02:10:14.519Z,99.99
2018-06-24T02:11:14.511Z,99.99
2018-06-24T02:12:14.503Z,99.99
2018-06-24T02:13:14.496Z,99.99
2018-06-24T02:14:14.489Z,99.99
2018-06-24T02:15:14.480Z,99.99
2018-06-24T02:16:14.472Z,99.99
2018-06-24T02:17:14.465Z,99.99
2018-06-24T02:18:14.461Z,99.99
2018-06-24T02:19:14.448Z,99.99
2018-06-24T02:20:14.444Z,99.99
2018-06-24T02:21:14.436Z,99.99
2018-06-24T02:22:14.424Z,99.99
2018-06-24T02:23:14.417Z,99.99
2018-06-24T02:24:14.409Z,99.99
2018-06-24T02:25:14.401Z,99.99
2018-06-24T02:26:14.393Z,99.99
2018-06-24T02:27:14.385Z,99.99
2018-06-24T02:28:14.378Z,99.99
2018-06-24T02:29:14.371Z,99.99
2018-06-24T02:30:14.362Z,99.99
2018-06-24T02:31:14.354Z,99.99
2018-06-24T02:32:14.346Z,99.99
2018-06-24T02:33:14.342Z,99.99
2018-06-24T02:34:14.330Z,99.99
2018-06-24T02:35:14.323Z,99.99
2018-06-24T02:36:14.315Z,99.99
2018-06-24T02:37:14.308Z,99.99
2018-06-24T02:38:14.303Z,99.99
2018-06-24T02:39:14.292Z,99.99
2018-06-24T02:40:14.284Z,99.99
2018-06-24T02:41:14.280Z,99.99
2018-06-24T02:42:14.268Z,99.99
2018-06-24T02:43:14.260Z,99.99
2018-06-24T02:44:14.253Z,99.99
2018-06-24T02:45:14.245Z,99.99
2018-06-24T02:46:14.237Z,99.99
2018-06-24T02:47:14.229Z,99.99
2018-06-24T02:48:14.223Z,99.99
2018-06-24T02:49:14.215Z,99.99
2018-06-24T02:50:14.207Z,99.99
2018-06-24T02:51:14.200Z,99.99
2018-06-24T02:52:14.196Z,99.99
2018-06-24T02:53:14.184Z,99.99
2018-06-24T02:54:14.175Z,99.99
2018-06-24T02:55:14.167Z,99.99
2018-06-24T02:56:14.160Z,99.99
2018-06-24T02:57:14.155Z,99.99
2018-06-24T02:58:14.145Z,99.99
2018-06-24T02:59:14.136Z,99.99
2018-06-24T03:00:14.131Z,99.99
2018-06-24T03:01:14.122Z,99.99
2018-06-24T03:02:14.116Z,99.99
2018-06-24T03:03:14.106Z,99.99
2018-06-24T03:04:14.099Z,99.99
2018-06-24T03:05:14.098Z,99.99
2018-06-24T03:06:14.086Z,99.99
2018-06-24T03:07:14.075Z,99.99
2018-06-24T03:09:14.061Z,99.99
2018-06-24T03:10:14.053Z,99.99
2018-06-24T03:11:14.050Z,99.99
2018-06-24T03:12:14.037Z,99.99
2018-06-24T03:13:14.029Z,99.99
2018-06-24T03:14:14.022Z,99.99
2018-06-24T03:15:14.014Z,99.99
2018-06-24T03:16:14.007Z,99.99
2018-06-24T03:17:13.999Z,99.99
2018-06-24T03:18:13.997Z,99.99
2018-06-24T03:19:13.982Z,99.99
2018-06-24T03:20:13.974Z,99.99
2018-06-24T03:21:13.970Z,99.99
2018-06-24T03:22:13.957Z,99.99
2018-06-24T03:23:13.949Z,99.99
2018-06-24T03:24:13.942Z,99.99
2018-06-24T03:25:13.936Z,99.99
2018-06-24T03:26:13.926Z,99.99
2018-06-24T03:27:13.917Z,99.99
2018-06-24T03:28:13.913Z,99.99
2018-06-24T03:29:13.901Z,99.99
2018-06-24T03:30:13.893Z,99.99
2018-06-24T03:31:13.885Z,99.99
2018-06-24T03:32:13.877Z,99.99
2018-06-24T03:33:13.872Z,99.99
2018-06-24T03:34:13.863Z,99.99
2018-06-24T03:35:13.853Z,99.99
2018-06-24T03:36:13.851Z,99.99
2018-06-24T03:37:13.838Z,99.99
2018-06-24T03:38:13.832Z,99.99
2018-06-24T03:39:13.820Z,99.99
2018-06-24T03:40:13.820Z,99.99
2018-06-24T03:41:13.805Z,99.99
2018-06-24T03:42:13.796Z,99.99
2018-06-24T03:43:13.788Z,99.99
2018-06-24T03:44:13.780Z,99.99
2018-06-24T03:45:13.774Z,99.99
2018-06-24T03:46:13.768Z,99.99
2018-06-24T03:47:13.758Z,99.99
2018-06-24T03:48:13.748Z,99.99
2018-06-24T03:49:13.740Z,99.99
2018-06-24T03:50:13.733Z,99.99
2018-06-24T03:51:13.726Z,99.99
2018-06-24T03:52:13.718Z,99.99
2018-06-24T03:53:13.707Z,99.99
2018-06-24T03:54:13.706Z,99.99
2018-06-24T03:55:13.693Z,99.99
2018-06-24T03:56:13.686Z,99.99
2018-06-24T03:57:13.674Z,99.99
2018-06-24T03:58:13.669Z,99.99
2018-06-24T03:59:13.657Z,99.99
2018-06-24T04:00:13.651Z,99.99
2018-06-24T04:01:13.642Z,99.99
2018-06-24T04:02:13.633Z,99.99
2018-06-24T04:03:13.626Z,99.99
2018-06-24T04:04:13.623Z,99.99
2018-06-24T04:05:13.611Z,99.99
2018-06-24T04:06:13.601Z,99.99
2018-06-24T04:07:13.598Z,99.99
2018-06-24T04:08:13.586Z,99.99
2018-06-24T04:09:13.780Z,99.99
2018-06-24T04:10:13.570Z,99.99
2018-06-24T04:11:13.562Z,99.99
2018-06-24T04:12:13.555Z,99.99
2018-06-24T04:13:13.552Z,99.99
2018-06-24T04:14:13.538Z,99.99
2018-06-24T04:15:13.533Z,99.99
2018-06-24T04:16:13.523Z,99.99
2018-06-24T04:17:13.519Z,99.99
2018-06-24T04:18:13.507Z,99.99
2018-06-24T04:19:13.500Z,99.99
2018-06-24T04:20:13.492Z,99.99
2018-06-24T04:21:13.485Z,99.99
2018-06-24T04:22:13.476Z,99.99
2018-06-24T04:23:13.472Z,99.99
2018-06-24T04:24:13.464Z,99.99
2018-06-24T04:25:13.455Z,99.99
2018-06-24T04:26:13.445Z,99.99
2018-06-24T04:27:13.438Z,99.99
2018-06-24T04:28:13.434Z,99.99
2018-06-24T04:29:13.422Z,99.99
2018-06-24T04:30:13.418Z,99.99
2018-06-24T04:31:13.406Z,99.99
2018-06-24T04:32:13.400Z,99.99
2018-06-24T04:33:13.392Z,99.99
2018-06-24T04:34:13.587Z,99.99
2018-06-24T04:35:13.579Z,99.99
2018-06-24T04:36:13.370Z,99.99
2018-06-24T04:37:13.362Z,99.99
2018-06-24T04:38:13.360Z,99.99
2018-06-24T04:39:13.347Z,99.99
2018-06-24T04:40:13.339Z,99.99
2018-06-24T04:41:13.332Z,99.99
2018-06-24T04:42:13.324Z,99.99
2018-06-24T04:43:13.318Z,99.99
2018-06-24T04:44:13.311Z,99.99
2018-06-24T04:45:13.305Z,99.99
2018-06-24T04:46:13.294Z,99.99
2018-06-24T04:47:13.291Z,99.99
2018-06-24T04:48:13.280Z,99.99
2018-06-24T04:49:13.275Z,99.99
2018-06-24T04:50:13.264Z,99.99
2018-06-24T04:51:13.258Z,99.99
2018-06-24T04:52:13.455Z,99.99
2018-06-24T04:53:13.451Z,99.99
2018-06-24T04:54:13.235Z,99.99
2018-06-24T04:55:13.232Z,99.99
2018-06-24T04:56:13.220Z,99.99
2018-06-24T04:57:13.216Z,99.99
2018-06-24T04:58:13.205Z,99.71
2018-06-24T04:59:13.201Z,99.43
2018-06-24T05:00:13.191Z,99.43
2018-06-24T05:01:13.183Z,99.52
2018-06-24T05:02:13.175Z,99.52
2018-06-24T05:03:13.171Z,99.99
2018-06-24T05:04:13.160Z,99.99
2018-06-24T05:05:13.154Z,99.99
2018-06-24T05:06:13.144Z,99.99
2018-06-24T05:07:13.141Z,99.99
2018-06-24T05:08:13.130Z,99.71
2018-06-24T05:09:13.129Z,99.43
2018-06-24T05:10:13.120Z,99.33
2018-06-24T05:11:13.108Z,99.43
2018-06-24T05:12:13.106Z,99.33
2018-06-24T05:13:13.098Z,99.90
2018-06-24T05:14:13.086Z,99.80
2018-06-24T05:15:13.080Z,99.99
2018-06-24T05:16:13.071Z,99.80
2018-06-24T05:17:13.067Z,99.71
2018-06-24T05:18:13.055Z,99.99
2018-06-24T05:19:13.053Z,99.99
2018-06-24T05:20:13.041Z,99.80
2018-06-24T05:21:13.035Z,99.09
2018-06-24T05:22:13.037Z,98.37
2018-06-24T05:23:13.020Z,98.90
2018-06-24T05:24:13.017Z,98.85
2018-06-24T05:25:13.007Z,98.90
2018-06-24T05:26:12.999Z,98.61
2018-06-24T05:27:12.993Z,98.90
2018-06-24T05:28:12.986Z,98.52
2018-06-24T05:29:12.979Z,98.99
2018-06-24T05:30:12.978Z,98.80
2018-06-24T05:31:12.971Z,99.09
2018-06-24T05:32:12.959Z,98.61
2018-06-24T05:33:12.954Z,97.75
2018-06-24T05:34:12.946Z,98.04
2018-06-24T05:35:12.940Z,97.75
2018-06-24T05:36:12.934Z,98.04
2018-06-24T05:37:12.927Z,98.33
2018-06-24T05:38:12.923Z,98.33
2018-06-24T05:39:13.122Z,98.71
2018-06-24T05:40:13.114Z,98.23
2018-06-24T05:41:12.904Z,98.23
2018-06-24T05:42:12.898Z,97.66
2018-06-24T05:43:12.889Z,98.13
2018-06-24T05:44:12.885Z,97.85
2018-06-24T05:45:12.875Z,98.04
2018-06-24T05:46:12.868Z,98.04
2018-06-24T05:47:12.864Z,98.52
2018-06-24T05:48:12.856Z,98.52
2018-06-24T05:49:12.850Z,97.85
2018-06-24T05:50:12.847Z,97.37
2018-06-24T05:51:12.835Z,98.23
2018-06-24T05:52:12.832Z,98.42
2018-06-24T05:53:12.823Z,98.80
2018-06-24T05:54:12.879Z,98.61
2018-06-24T05:55:12.811Z,98.80
2018-06-24T05:56:12.803Z,98.33
2018-06-24T05:57:12.797Z,98.52
2018-06-24T05:58:12.792Z,98.42
2018-06-24T05:59:12.990Z,98.13
2018-06-24T06:00:12.783Z,97.56
2018-06-24T06:01:12.771Z,99.19
2018-06-24T06:02:12.763Z,99.19
2018-06-24T06:03:12.760Z,98.71
2018-06-24T06:04:12.752Z,98.71
2018-06-24T06:05:12.746Z,98.99
2018-06-24T06:06:12.738Z,98.90
2018-06-24T06:07:12.733Z,97.94
2018-06-24T06:08:12.724Z,98.13
2018-06-24T06:09:12.720Z,97.94
2018-06-24T06:10:12.747Z,98.13
2018-06-24T06:11:12.710Z,98.52
2018-06-24T06:12:12.705Z,98.23
2018-06-24T06:13:12.694Z,96.89
2018-06-24T06:14:12.687Z,97.66
2018-06-24T06:15:12.688Z,97.85
2018-06-24T06:16:12.728Z,97.99
2018-06-24T06:17:12.668Z,98.66
2018-06-24T06:18:12.662Z,98.04
2018-06-24T06:19:12.661Z,97.80
2018-06-24T06:20:12.646Z,96.84
2018-06-24T06:21:12.645Z,95.89
2018-06-24T06:22:12.637Z,95.89
2018-06-24T06:23:12.628Z,95.98
2018-06-24T06:24:12.621Z,95.89
2018-06-24T06:25:12.616Z,96.18
2018-06-24T06:26:12.609Z,96.47
2018-06-24T06:27:12.607Z,96.08
2018-06-24T06:28:12.605Z,96.66
2018-06-24T06:29:12.592Z,96.37
2018-06-24T06:30:12.594Z,95.22
2018-06-24T06:31:12.584Z,95.70
2018-06-24T06:32:12.574Z,95.32
2018-06-24T06:33:12.569Z,96.13
2018-06-24T06:34:12.570Z,95.94
2018-06-24T06:35:12.561Z,94.98
2018-06-24T06:36:12.552Z,93.26
2018-06-24T06:37:12.547Z,93.07
2018-06-24T06:38:12.541Z,93.16
2018-06-24T06:39:12.536Z,92.69
2018-06-24T06:40:12.531Z,93.45
2018-06-24T06:41:12.527Z,94.50
2018-06-24T06:42:12.521Z,94.50
2018-06-24T06:43:12.515Z,93.45
2018-06-24T06:44:12.511Z,93.55
2018-06-24T06:45:12.561Z,93.35
2018-06-24T06:46:12.500Z,94.50
2018-06-24T06:47:12.497Z,93.64
2018-06-24T06:48:12.490Z,92.69
2018-06-24T06:49:12.493Z,93.64
2018-06-24T06:50:12.482Z,93.74
2018-06-24T06:51:12.559Z,94.12
2018-06-24T06:52:12.469Z,93.16
2018-06-24T06:53:12.468Z,92.69
2018-06-24T06:54:12.464Z,92.88
2018-06-24T06:55:12.455Z,93.64
2018-06-24T06:56:12.449Z,92.69
2018-06-24T06:57:12.445Z,92.59
2018-06-24T06:58:12.439Z,92.49
2018-06-24T06:59:12.438Z,93.55
2018-06-24T07:00:12.500Z,93.45
2018-06-24T07:01:12.425Z,93.30
2018-06-24T07:02:12.421Z,92.35
2018-06-24T07:03:12.617Z,91.92
2018-06-24T07:04:12.409Z,92.69
2018-06-24T07:05:12.405Z,92.49
2018-06-24T07:06:12.402Z,91.73
2018-06-24T07:07:12.397Z,91.63
2018-06-24T07:08:12.393Z,92.35
2018-06-24T07:09:12.387Z,92.59
2018-06-24T07:10:12.380Z,91.53
2018-06-24T07:11:12.375Z,93.16
2018-06-24T07:12:12.376Z,92.78
2018-06-24T07:13:12.367Z,93.26
2018-06-24T07:14:12.364Z,92.59
2018-06-24T07:15:12.357Z,92.11
2018-06-24T07:16:12.350Z,92.40
2018-06-24T07:17:12.350Z,93.26
2018-06-24T07:18:12.344Z,92.59
2018-06-24T07:19:12.336Z,92.59
2018-06-24T07:20:12.331Z,92.97
2018-06-24T07:21:12.330Z,93.26
2018-06-24T07:22:12.378Z,93.35
2018-06-24T07:23:12.315Z,92.59
2018-06-24T07:24:12.310Z,93.55
2018-06-24T07:25:12.301Z,92.49
2018-06-24T07:26:12.295Z,93.07
2018-06-24T07:27:12.295Z,92.59
2018-06-24T07:28:12.286Z,93.16
2018-06-24T07:29:12.280Z,92.59
2018-06-24T07:30:12.281Z,92.49
2018-06-24T07:31:12.269Z,92.69
2018-06-24T07:32:12.267Z,93.16
2018-06-24T07:33:12.290Z,92.21
2018-06-24T07:34:12.252Z,93.55
2018-06-24T07:35:12.248Z,93.64
2018-06-24T07:36:12.245Z,93.74
2018-06-24T07:37:12.236Z,93.35
2018-06-24T07:38:12.229Z,93.45
2018-06-24T07:39:12.265Z,93.64
2018-06-24T07:40:12.218Z,93.45
2018-06-24T07:41:12.213Z,93.64
2018-06-24T07:42:12.206Z,93.26
2018-06-24T07:43:12.201Z,93.45
2018-06-24T07:44:12.195Z,93.74
2018-06-24T07:45:12.189Z,93.93
2018-06-24T07:46:12.185Z,93.02
2018-06-24T07:47:12.177Z,93.02
2018-06-24T07:48:12.176Z,93.07
2018-06-24T07:49:12.169Z,93.12
2018-06-24T07:50:12.183Z,93.69
2018-06-24T07:51:12.163Z,93.21
2018-06-24T07:52:12.151Z,94.50
2018-06-24T07:53:12.141Z,94.89
2018-06-24T07:54:12.134Z,94.70
2018-06-24T07:55:12.336Z,93.84
2018-06-24T07:56:12.125Z,93.07
2018-06-24T07:57:12.117Z,93.45
2018-06-24T07:58:12.115Z,92.59
2018-06-24T07:59:12.108Z,93.93
2018-06-24T08:00:12.098Z,93.93
2018-06-24T08:01:12.093Z,92.40
2018-06-24T08:02:12.088Z,92.21
2018-06-24T08:03:12.091Z,91.44
2018-06-24T08:04:12.075Z,92.06
2018-06-24T08:05:12.075Z,90.24
2018-06-24T08:06:12.065Z,90.44
2018-06-24T08:07:12.058Z,90.05
2018-06-24T08:08:12.055Z,90.24
2018-06-24T08:09:12.105Z,89.76
2018-06-24T08:10:12.045Z,88.71
2018-06-24T08:11:12.108Z,88.18
2018-06-24T08:12:12.037Z,88.76
2018-06-24T08:13:12.028Z,88.85
2018-06-24T08:14:12.025Z,86.46
2018-06-24T08:15:12.019Z,87.51
2018-06-24T08:16:12.015Z,88.09
2018-06-24T08:17:12.014Z,89.18
2018-06-24T08:18:12.009Z,88.32
2018-06-24T08:19:12.005Z,88.13
2018-06-24T08:20:12.044Z,87.31
2018-06-24T08:22:11.989Z,87.17
2018-06-24T08:23:11.986Z,86.02
2018-06-24T08:24:11.982Z,87.94
2018-06-24T08:25:11.979Z,86.60
2018-06-24T08:26:11.982Z,86.12
2018-06-24T08:27:11.970Z,86.50
2018-06-24T08:28:11.966Z,86.21
2018-06-24T08:29:11.965Z,86.02
2018-06-24T08:30:11.957Z,85.74
2018-06-24T08:31:11.959Z,85.60
2018-06-24T08:32:11.951Z,86.27
2018-06-24T08:33:11.953Z,86.46
2018-06-24T08:34:11.941Z,86.94
2018-06-24T08:35:11.938Z,87.80
2018-06-24T08:36:12.084Z,87.23
2018-06-24T08:37:11.952Z,88.37
2018-06-24T08:38:11.930Z,88.32
2018-06-24T08:39:11.926Z,86.79
2018-06-24T08:40:11.918Z,86.88
2018-06-24T08:41:11.920Z,87.37
2018-06-24T08:42:11.910Z,86.79
2018-06-24T08:43:11.907Z,86.41
2018-06-24T08:44:11.906Z,87.74
2018-06-24T08:45:11.899Z,88.23
2018-06-24T08:46:11.905Z,88.03
2018-06-24T08:47:11.947Z,87.08
2018-06-24T08:48:11.887Z,85.54
2018-06-24T08:49:11.884Z,84.97
2018-06-24T08:50:11.883Z,86.98
2018-06-24T08:51:11.880Z,85.68
2018-06-24T08:52:11.876Z,85.97
2018-06-24T08:53:11.870Z,85.44
2018-06-24T08:54:11.873Z,84.09
2018-06-24T08:55:11.863Z,84.00
2018-06-24T08:56:11.865Z,84.00
2018-06-24T08:57:11.861Z,82.37
2018-06-24T08:58:11.864Z,81.79
2018-06-24T08:59:11.854Z,82.08
2018-06-24T09:00:11.855Z,81.89
2018-06-24T09:01:11.850Z,82.08
2018-06-24T09:02:11.850Z,82.03
2018-06-24T09:03:11.848Z,81.07
2018-06-24T09:04:11.843Z,80.20
2018-06-24T09:05:11.846Z,80.35
2018-06-24T09:06:11.840Z,82.08
2018-06-24T09:07:11.838Z,81.89
2018-06-24T09:08:11.935Z,83.04
2018-06-24T09:09:11.836Z,84.00
2018-06-24T09:10:11.836Z,85.77
2018-06-24T09:11:11.832Z,82.31
2018-06-24T09:12:11.830Z,80.26
2018-06-24T09:13:11.828Z,80.16
2018-06-24T09:14:11.829Z,80.55
2018-06-24T09:15:11.880Z,82.56
2018-06-24T09:16:11.825Z,82.03
2018-06-24T09:17:11.824Z,81.35
2018-06-24T09:18:11.821Z,78.28
2018-06-24T09:19:11.816Z,79.72
2018-06-24T09:20:11.815Z,79.97
2018-06-24T09:21:12.020Z,81.89
2018-06-24T09:22:11.819Z,83.37
2018-06-24T09:23:11.808Z,80.87
2018-06-24T09:24:11.809Z,81.45
2018-06-24T09:25:11.805Z,81.54
2018-06-24T09:26:11.802Z,82.31
2018-06-24T09:27:11.801Z,81.97
2018-06-24T09:28:11.798Z,80.73
2018-06-24T09:29:11.801Z,80.34
2018-06-24T09:30:11.798Z,81.59
2018-06-24T09:31:11.793Z,81.49
2018-06-24T09:32:11.791Z,81.30
2018-06-24T09:33:11.791Z,78.52
2018-06-24T09:34:11.792Z,79.38
2018-06-24T09:35:11.787Z,79.63
2018-06-24T09:36:11.787Z,78.32
2018-06-24T09:37:11.785Z,79.63
2018-06-24T09:38:11.779Z,79.63
2018-06-24T09:39:11.778Z,79.24
2018-06-24T09:40:11.775Z,78.57
2018-06-24T09:41:11.774Z,79.38
2018-06-24T09:42:11.771Z,78.42
2018-06-24T09:43:11.770Z,75.63
2018-06-24T09:44:11.769Z,75.54
2018-06-24T09:45:11.970Z,77.31
2018-06-24T09:46:11.765Z,77.50
2018-06-24T09:47:11.765Z,75.96
2018-06-24T09:48:11.763Z,77.01
2018-06-24T09:49:11.763Z,76.73
2018-06-24T09:50:11.765Z,80.38
2018-06-24T09:51:11.760Z,77.88
2018-06-24T09:52:11.759Z,76.64
2018-06-24T09:53:11.762Z,77.25
2018-06-24T09:54:11.766Z,78.02
2018-06-24T09:55:11.759Z,76.48
2018-06-24T09:56:11.755Z,76.25
2018-06-24T09:57:11.754Z,77.11
2018-06-24T09:58:11.752Z,77.15
2018-06-24T09:59:11.757Z,77.25
2018-06-24T10:00:11.751Z,73.46
2018-06-24T10:01:11.755Z,74.81
2018-06-24T10:02:11.748Z,76.29
2018-06-24T10:03:11.901Z,76.00
2018-06-24T10:04:11.746Z,75.62
2018-06-24T10:05:11.747Z,74.08
2018-06-24T10:06:11.748Z,72.54
2018-06-24T10:07:11.748Z,73.88
2018-06-24T10:08:11.743Z,74.94
2018-06-24T10:09:11.950Z,74.94
2018-06-24T10:10:11.947Z,74.94
2018-06-24T10:11:11.746Z,76.00
2018-06-24T10:12:11.793Z,76.00
2018-06-24T10:13:11.745Z,74.94
2018-06-24T10:14:11.741Z,73.21
2018-06-24T10:15:11.744Z,73.94
2018-06-24T10:16:11.739Z,75.96
2018-06-24T10:17:11.945Z,77.59
2018-06-24T10:18:11.737Z,76.73
2018-06-24T10:19:11.736Z,75.96
2018-06-24T10:20:11.787Z,75.62
2018-06-24T10:21:11.736Z,70.52
2018-06-24T10:22:11.734Z,72.25
2018-06-24T10:23:11.733Z,74.40
2018-06-24T10:24:11.733Z,72.06
2018-06-24T10:25:11.936Z,72.83
2018-06-24T10:26:11.742Z,70.43
2018-06-24T10:27:11.733Z,73.06
2018-06-24T10:28:11.734Z,72.77
2018-06-24T10:29:11.734Z,73.09
2018-06-24T10:30:11.732Z,72.03
2018-06-24T10:32:11.732Z,70.11
2018-06-24T10:33:11.935Z,69.53
2018-06-24T10:34:11.732Z,69.53
2018-06-24T10:35:11.735Z,68.15
2018-06-24T10:36:11.734Z,70.40
2018-06-24T10:37:11.735Z,71.71
2018-06-24T10:38:11.739Z,71.65
2018-06-24T10:39:11.743Z,69.92
2018-06-24T10:40:11.737Z,68.70
2018-06-24T10:41:11.804Z,69.85
2018-06-24T10:42:11.739Z,68.16
2018-06-24T10:43:11.744Z,65.85
2018-06-24T10:44:11.744Z,66.91
2018-06-24T10:45:11.744Z,66.36
2018-06-24T10:46:11.749Z,66.36
2018-06-24T10:47:11.748Z,62.22
2018-06-24T10:48:11.754Z,66.17
2018-06-24T10:49:11.757Z,63.28
2018-06-24T10:50:11.758Z,65.40
2018-06-24T10:51:11.762Z,65.01
2018-06-24T10:52:11.770Z,63.82
2018-06-24T10:53:11.770Z,63.92
2018-06-24T10:54:11.774Z,65.27
2018-06-24T10:55:11.773Z,65.43
2018-06-24T10:57:11.779Z,66.14
2018-06-24T10:58:11.784Z,66.33
2018-06-24T10:59:11.783Z,65.69
2018-06-24T11:01:11.789Z,62.51
2018-06-24T11:02:11.852Z,65.20
2018-06-24T11:03:11.798Z,64.34
2018-06-24T11:04:11.801Z,65.40
2018-06-24T11:05:11.805Z,63.92
2018-06-24T11:06:12.019Z,61.22
2018-06-24T11:07:11.820Z,63.28
2018-06-24T11:08:11.822Z,62.63
2018-06-24T11:09:11.833Z,58.97
2018-06-24T11:10:11.838Z,60.10
2018-06-24T11:11:11.839Z,58.65
2018-06-24T11:12:11.845Z,60.55
2018-06-24T11:13:11.851Z,60.06
2018-06-24T11:14:11.861Z,60.35
2018-06-24T11:15:11.860Z,60.23
2018-06-24T11:16:11.863Z,60.90
2018-06-24T11:17:11.869Z,60.58
2018-06-24T11:18:12.072Z,61.45
2018-06-24T11:19:11.873Z,62.00
2018-06-24T11:20:11.876Z,61.71
2018-06-24T11:21:11.882Z,62.06
2018-06-24T11:23:11.883Z,61.87
2018-06-24T11:24:11.885Z,62.45
2018-06-24T11:25:11.892Z,62.09
2018-06-24T11:26:11.895Z,62.06
2018-06-24T11:27:11.895Z,63.54
2018-06-24T11:28:11.899Z,60.58
2018-06-24T11:29:11.905Z,58.00
2018-06-24T11:30:11.911Z,58.36
2018-06-24T11:31:12.117Z,55.34
2018-06-24T11:32:11.920Z,56.01
2018-06-24T11:33:11.927Z,57.05
2018-06-24T11:34:11.936Z,59.52
2018-06-24T11:35:11.978Z,59.91
2018-06-24T11:36:11.936Z,60.07
2018-06-24T11:37:11.941Z,62.09
2018-06-24T11:38:11.942Z,60.30
2018-06-24T11:39:11.945Z,59.52
2018-06-24T11:40:11.955Z,59.91
2018-06-24T11:41:11.955Z,57.43
2018-06-24T11:42:11.956Z,59.39
2018-06-24T11:43:11.959Z,59.23
2018-06-24T11:44:11.967Z,60.41
2018-06-24T11:45:11.970Z,56.20
2018-06-24T11:46:11.975Z,55.81
2018-06-24T11:47:11.981Z,55.45
2018-06-24T11:48:11.987Z,51.39
2018-06-24T11:49:11.994Z,54.17
2018-06-24T11:50:11.999Z,55.13
2018-06-24T11:51:12.006Z,53.71
2018-06-24T11:52:12.015Z,54.19
2018-06-24T11:53:12.019Z,54.29
2018-06-24T11:54:12.025Z,53.91
2018-06-24T11:55:12.033Z,51.49
2018-06-24T11:56:12.041Z,52.29
2018-06-24T11:57:12.048Z,52.29
2018-06-24T11:58:12.057Z,50.07
2018-06-24T11:59:12.062Z,50.38
2018-06-24T12:00:12.285Z,50.96
2018-06-24T12:01:12.079Z,50.86
2018-06-24T12:02:12.086Z,52.12
2018-06-24T12:03:12.498Z,52.12
2018-06-24T12:04:12.177Z,52.63
2018-06-24T12:05:12.110Z,50.98
2018-06-24T12:06:12.122Z,50.38
2018-06-24T12:07:12.130Z,49.87
2018-06-24T12:08:12.338Z,51.15
2018-06-24T12:09:12.143Z,48.32
2018-06-24T12:10:12.158Z,49.87
2018-06-24T12:11:12.159Z,51.06
2018-06-24T12:12:12.168Z,47.55
2018-06-24T12:13:12.378Z,48.90
2018-06-24T12:14:12.187Z,47.84
2018-06-24T12:15:12.395Z,47.28
2018-06-24T12:16:12.207Z,47.09
2018-06-24T12:17:12.412Z,45.06
2018-06-24T12:18:12.271Z,49.80
2018-06-24T12:19:12.227Z,47.09
2018-06-24T12:20:12.237Z,44.96
2018-06-24T12:21:12.246Z,45.01
2018-06-24T12:22:12.253Z,49.46
2018-06-24T12:23:12.259Z,46.17
2018-06-24T12:24:12.269Z,47.72
2018-06-24T12:25:12.276Z,47.45
2018-06-24T12:26:12.284Z,46.90
2018-06-24T12:27:12.291Z,45.54
2018-06-24T12:28:12.300Z,44.89
2018-06-24T12:29:12.312Z,46.15
2018-06-24T12:30:12.316Z,45.49
2018-06-24T12:31:12.331Z,46.84
2018-06-24T12:32:12.332Z,46.36
2018-06-24T12:33:12.344Z,45.68
2018-06-24T12:34:12.347Z,47.14
2018-06-24T12:35:12.357Z,44.89
2018-06-24T12:36:12.368Z,46.26
2018-06-24T12:37:12.373Z,45.51
2018-06-24T12:38:12.380Z,45.42
2018-06-24T12:39:12.389Z,43.95
2018-06-24T12:40:12.399Z,45.01
2018-06-24T12:41:12.406Z,44.13
2018-06-24T12:42:12.413Z,45.78
2018-06-24T12:43:12.421Z,42.65
2018-06-24T12:44:12.432Z,45.45
2018-06-24T12:45:12.442Z,45.64
2018-06-24T12:46:12.444Z,45.35
2018-06-24T12:47:12.452Z,46.39
2018-06-24T12:48:12.463Z,45.52
2018-06-24T12:49:12.469Z,45.42
2018-06-24T12:50:12.476Z,43.78
2018-06-24T12:51:12.482Z,45.72
2018-06-24T12:52:12.491Z,45.04
2018-06-24T12:53:12.492Z,46.30
2018-06-24T12:54:12.502Z,45.01
2018-06-24T12:55:12.505Z,44.60
2018-06-24T12:56:12.515Z,47.14
2018-06-24T12:57:12.523Z,47.84
2018-06-24T12:58:12.547Z,48.35